• Join FlightAware (Why Join?)
  • Login
  • US Flag 
08:15AM EDT


 

Airport Tracker/Info


-or-


 

Live Flight TrackerFlight Track Log ✈ SWA2624 ✈ 29-Apr-2013 ✈ KBWI - KABQ

Flight Track Log - Related Links

Times and Time Zones

All times are in EDT time to prevent confusion due to time zone crossing. See the SWA2624 flight status page for this flight to view local times or setup timezone preferences in your user account.

Time Position Orientation Groundspeed Altitude Reporting Facility
EDT Latitude Longitude Course Direction KTS MPH feet Rate Location/Type
06:43PM 39.1333 -76.6833 252° West 215 247 2,900  Level Potomac TRACON
06:44PM 39.1667 -76.7500 303° West 256 295 5,200 2,760 Climbing Potomac TRACON
06:45PM 39.1833 -76.8500 282° West 288 331 8,500 3,180 Climbing Potomac TRACON
06:46PM 39.1833 -76.9500 270° West 297 342 11,600 3,240 Climbing Potomac TRACON
06:47PM 39.2000 -77.0667 280° West 347 399 14,700 3,120 Climbing Potomac TRACON
06:49PM 38.9863 -77.3714 252° West  Level FlightAware Approximate
06:49PM 39.1294 -77.2264 240° Southwest 353 406 19,600  Level Washington Center
06:50PM 39.0614 -77.3292 230° Southwest 365 420 22,400 2,580 Climbing Washington Center
06:51PM 39.0303 -77.4647 254° West 375 432 24,700 2,160 Climbing Washington Center
06:52PM 38.9967 -77.6081 253° West 403 464 26,800 1,980 Climbing Washington Center
06:53PM 38.9650 -77.7408 253° West 429 494 28,700 1,980 Climbing Washington Center
06:54PM 38.9267 -77.9078 254° West 436 502 30,900 2,160 Climbing Washington Center
06:55PM 38.8903 -78.0506 252° West 441 507 33,100 2,160 Climbing Washington Center
06:56PM 38.8581 -78.1961 254° West 436 502 35,300 2,040 Climbing Washington Center
06:57PM 38.8506 -78.3425 266° West 423 487 37,200 1,500 Climbing Washington Center
06:58PM 38.8494 -78.4864 269° West 418 481 38,300 840 Climbing Washington Center
06:59PM 38.8500 -78.6331 270° West 413 475 39,000 300 Climbing Washington Center
07:00PM 38.8483 -78.7742 269° West 408 470 39,000  Level Washington Center
07:01PM 38.8464 -78.9208 269° West 403 464 39,000  Level Washington Center
07:02PM 38.8425 -79.0644 268° West 403 464 39,000  Level Washington Center
07:03PM 38.8422 -79.2086 270° West 403 464 39,000  Level Washington Center
07:04PM 38.8400 -79.3522 269° West 403 464 39,000  Level Washington Center
07:05PM 38.8375 -79.4989 269° West 403 464 39,000 480 Level Washington Center
07:06PM 38.8350 -79.6344 269° West 416 479 40,000 480 Climbing Washington Center
07:07PM 38.8300 -79.7783 267° West 421 484 40,000  Level Washington Center
07:08PM 38.8272 -79.9192 269° West 416 479 40,000  Level Washington Center
07:10PM 38.8186 -80.1550 267° West 402 463 40,000  Level Indianapolis Center
07:11PM 38.8147 -80.2989 268° West 404 465 40,000  Level Indianapolis Center
07:12PM 38.8097 -80.4419 267° West 403 464 40,000  Level Indianapolis Center
07:13PM 38.8064 -80.5836 268° West 400 460 40,000  Level Indianapolis Center
07:14PM 38.8019 -80.7253 268° West 399 459 40,000  Level Indianapolis Center
07:15PM 38.7961 -80.8961 268° West 399 459 40,000  Level Indianapolis Center
07:16PM 38.7917 -81.0383 268° West 401 461 40,000  Level Indianapolis Center
07:17PM 38.7869 -81.1811 268° West 401 461 40,000  Level Indianapolis Center
07:18PM 38.7819 -81.3256 268° West 407 468 40,000  Level Indianapolis Center
07:19PM 38.7753 -81.4786 267° West 405 466 40,000  Level Indianapolis Center
07:20PM 38.7711 -81.6250 268° West 410 472 40,000  Level Indianapolis Center
07:21PM 38.7642 -81.7792 267° West 407 468 40,000  Level Indianapolis Center
07:22PM 38.7581 -81.9244 267° West 409 471 40,000  Level Indianapolis Center
07:23PM 38.7525 -82.0689 267° West 409 471 40,000  Level Indianapolis Center
07:24PM 38.7469 -82.2144 267° West 410 472 40,000  Level Indianapolis Center
07:25PM 38.7425 -82.3606 268° West 410 472 40,000  Level Indianapolis Center
07:26PM 38.7411 -82.5042 269° West 406 467 40,000  Level Indianapolis Center
07:27PM 38.7392 -82.6756 269° West 401 461 40,000  Level Indianapolis Center
07:28PM 38.7369 -82.8178 269° West 400 460 40,000  Level Indianapolis Center
07:29PM 38.7356 -82.9578 269° West 395 455 40,000  Level Indianapolis Center
07:30PM 38.7331 -83.0983 269° West 394 453 40,000  Level Indianapolis Center
07:31PM 38.7300 -83.2500 269° West 397 457 40,000  Level Indianapolis Center
07:32PM 38.7275 -83.3906 269° West 394 453 40,000  Level Indianapolis Center
07:33PM 38.7244 -83.5336 268° West 397 457 40,000  Level Indianapolis Center
07:34PM 38.7208 -83.6778 268° West 400 460 40,000  Level Indianapolis Center
07:35PM 38.7175 -83.8236 268° West 404 465 40,000  Level Indianapolis Center
07:36PM 38.7147 -83.9700 269° West 405 466 40,000  Level Indianapolis Center
07:37PM 38.7097 -84.1172 268° West 410 472 40,000  Level Indianapolis Center
07:38PM 38.7069 -84.2658 269° West 414 476 40,000  Level Indianapolis Center
07:39PM 38.7025 -84.4356 268° West 407 468 40,000  Level Indianapolis Center
07:40PM 38.6994 -84.5669 268° West 407 468 40,000  Level Indianapolis Center
07:41PM 38.6958 -84.7131 268° West 409 471 40,000  Level Indianapolis Center
07:43PM 38.6892 -84.8828 267° West 407 468 40,000  Level Indianapolis Center
07:44PM 38.6842 -85.0278 268° West 405 466 40,000  Level Indianapolis Center
07:45PM 38.6792 -85.1719 268° West 404 465 40,000  Level Indianapolis Center
07:46PM 38.6750 -85.3164 268° West 402 463 40,000  Level Indianapolis Center
07:47PM 38.6692 -85.4614 267° West 404 465 40,000  Level Indianapolis Center
07:48PM 38.6636 -85.6053 267° West 403 464 40,000  Level Indianapolis Center
07:49PM 38.6572 -85.7500 267° West 404 465 40,000  Level Indianapolis Center
07:50PM 38.6511 -85.8997 267° West 405 466 40,000  Level Indianapolis Center
07:51PM 38.6456 -86.0436 267° West 404 465 40,000  Level Indianapolis Center
07:52PM 38.6397 -86.1894 267° West 411 473 40,000  Level Indianapolis Center
07:53PM 38.6339 -86.3322 267° West 403 464 40,000  Level Indianapolis Center
07:54PM 38.6269 -86.4767 267° West 405 466 40,000  Level Indianapolis Center
07:55PM 38.6186 -86.6486 267° West 404 465 40,000  Level Indianapolis Center
07:56PM 38.6114 -86.7908 266° West 403 464 40,000  Level Indianapolis Center
07:57PM 38.6047 -86.9322 267° West 402 463 40,000  Level Indianapolis Center
07:58PM 38.5983 -87.0731 267° West 401 461 40,000  Level Indianapolis Center
07:59PM 38.5903 -87.2144 266° West 403 464 40,000  Level Indianapolis Center
08:00PM 38.5831 -87.3550 266° West 401 461 40,000  Level Indianapolis Center
08:01PM 38.5739 -87.5256 266° West 401 461 40,000  Level Indianapolis Center
08:02PM 38.5656 -87.6692 266° West 404 465 40,000  Level Indianapolis Center
08:03PM 38.5575 -87.8114 266° West 402 463 40,000  Level Indianapolis Center
08:04PM 38.5492 -87.9542 266° West 403 464 40,000  Level Indianapolis Center
08:05PM 38.5444 -88.0139 264° West 403 464 40,000  Level Kansas City Center
08:06PM 38.5375 -88.1575 267° West 405 466 40,000  Level Kansas City Center
08:07PM 38.5283 -88.3003 265° West 403 464 40,000  Level Kansas City Center
08:08PM 38.5172 -88.4722 265° West 404 465 40,000  Level Kansas City Center
08:09PM 38.5075 -88.6158 265° West 405 466 40,000  Level Kansas City Center
08:10PM 38.4997 -88.7619 266° West 407 468 40,000  Level Kansas City Center
08:11PM 38.4894 -88.9161 265° West 405 466 40,000  Level Kansas City Center
08:12PM 38.4800 -89.0600 265° West 409 471 40,000  Level Kansas City Center
08:13PM 38.4697 -89.2028 265° West 406 467 40,000  Level Kansas City Center
08:14PM 38.4592 -89.3567 265° West 406 467 40,000  Level Kansas City Center
08:15PM 38.4489 -89.5000 265° West 406 467 40,000  Level Kansas City Center
08:16PM 38.4378 -89.6544 265° West 406 467 40,000  Level Kansas City Center
08:17PM 38.4294 -89.7769 265° West 404 465 40,000  Level Kansas City Center
08:18PM 38.4178 -89.9203 264° West 406 467 40,000  Level Kansas City Center
08:19PM 38.4039 -90.0917 264° West 406 467 40,000  Level Kansas City Center
08:20PM 38.3919 -90.2378 264° West 404 465 40,000  Level Kansas City Center
08:21PM 38.3806 -90.3775 264° West 403 464 40,000  Level Kansas City Center
08:22PM 38.3689 -90.5217 264° West 403 464 40,000  Level Kansas City Center
08:23PM 38.3572 -90.6650 264° West 405 466 40,000  Level Kansas City Center
08:24PM 38.3456 -90.8086 264° West 407 468 40,000  Level Kansas City Center
08:25PM 38.3328 -90.9519 264° West 408 470 40,000  Level Kansas City Center
08:26PM 38.3217 -91.0958 264° West 409 471 40,000  Level Kansas City Center
08:27PM 38.3089 -91.2383 264° West 409 471 40,000  Level Kansas City Center
08:28PM 38.2944 -91.4167 264° West 409 471 40,000  Level Kansas City Center
08:29PM 38.2819 -91.5600 264° West 409 471 40,000  Level Kansas City Center
08:30PM 38.2686 -91.7017 263° West 406 467 40,000  Level Kansas City Center
08:31PM 38.2561 -91.8436 264° West 406 467 40,000  Level Kansas City Center
08:32PM 38.2433 -91.9856 264° West 407 468 40,000  Level Kansas City Center
08:33PM 38.2294 -92.1278 263° West 408 470 40,000  Level Kansas City Center
08:34PM 38.2139 -92.2950 263° West 403 464 40,000  Level Kansas City Center
08:35PM 38.2003 -92.4367 263° West 405 466 40,000  Level Kansas City Center
08:37PM 38.1858 -92.5806 263° West 412 474 40,000  Level Kansas City Center
08:38PM 38.1711 -92.7261 263° West 416 479 40,000  Level Kansas City Center
08:39PM 38.1572 -92.8658 263° West 409 471 40,000  Level Kansas City Center
08:40PM 38.1431 -93.0097 263° West 409 471 40,000  Level Kansas City Center
08:41PM 38.1253 -93.1828 263° West 411 473 40,000  Level Kansas City Center
08:42PM 38.1100 -93.3256 262° West 409 471 40,000  Level Kansas City Center
08:43PM 38.0947 -93.4692 262° West 411 473 40,000  Level Kansas City Center
08:44PM 38.0803 -93.6117 263° West 407 468 40,000  Level Kansas City Center
08:45PM 38.0639 -93.7550 262° West 409 471 40,000  Level Kansas City Center
08:46PM 38.0475 -93.8969 262° West 407 468 40,000  Level Kansas City Center
08:47PM 38.0331 -94.0394 263° West 408 470 40,000  Level Kansas City Center
08:48PM 38.0142 -94.2056 262° West 408 470 40,000  Level Kansas City Center
08:49PM 37.9986 -94.3433 262° West 410 472 40,000  Level Kansas City Center
08:50PM 37.9825 -94.4794 262° West 408 470 40,000  Level Kansas City Center
08:51PM 37.9647 -94.6381 262° West 407 468 40,000  Level Kansas City Center
08:52PM 37.9489 -94.7739 262° West 407 468 40,000  Level Kansas City Center
08:53PM 37.9292 -94.9344 261° West 410 472 40,000  Level Kansas City Center
08:54PM 37.9133 -95.0692 262° West 406 467 40,000  Level Kansas City Center
08:55PM 37.8947 -95.2219 261° West 409 471 40,000  Level Kansas City Center
08:56PM 37.8764 -95.3633 261° West 409 471 40,000  Level Kansas City Center
08:57PM 37.8583 -95.5072 261° West 412 474 40,000  Level Kansas City Center
08:58PM 37.8408 -95.6486 261° West 411 473 40,000  Level Kansas City Center
08:59PM 37.8222 -95.7969 261° West 421 484 40,000  Level Kansas City Center
09:00PM 37.7994 -95.9725 261° West 422 486 40,000  Level Kansas City Center
09:01PM 37.7806 -96.1178 261° West 416 479 40,000  Level Kansas City Center
09:02PM 37.7644 -96.2536 262° West 417 480 40,000  Level Kansas City Center
09:03PM 37.7444 -96.3989 260° West 420 483 40,000  Level Kansas City Center
09:04PM 37.7258 -96.5450 261° West 421 484 40,000  Level Kansas City Center
09:05PM 37.7069 -96.6875 261° West 413 475 40,000  Level Kansas City Center
09:06PM 37.6867 -96.8311 260° West 415 478 40,000  Level Kansas City Center
09:07PM 37.6636 -97.0014 260° West 411 473 40,000  Level Kansas City Center
09:08PM 37.6433 -97.1442 260° West 411 473 40,000  Level Kansas City Center
09:09PM 37.6233 -97.2881 260° West 415 478 40,000  Level Kansas City Center
09:10PM 37.6031 -97.4314 260° West 414 476 40,000  Level Kansas City Center
09:11PM 37.5825 -97.5753 260° West 414 476 40,000  Level Kansas City Center
09:13PM 37.5619 -97.7208 260° West 418 481 40,000  Level Kansas City Center
09:14PM 37.5406 -97.8650 259° West 415 478 40,000  Level Kansas City Center
09:15PM 37.5194 -98.0100 260° West 418 481 40,000  Level Kansas City Center
09:16PM 37.4981 -98.1547 259° West 418 481 40,000  Level Kansas City Center
09:17PM 37.4761 -98.2997 259° West 418 481 40,000  Level Kansas City Center
09:18PM 37.4511 -98.4717 260° West 417 480 40,000  Level Kansas City Center
09:19PM 37.4292 -98.6158 259° West 418 481 40,000  Level Kansas City Center
09:20PM 37.4072 -98.7594 259° West 417 480 40,000  Level Kansas City Center
09:21PM 37.3856 -98.9025 259° West 417 480 40,000  Level Kansas City Center
09:22PM 37.3631 -99.0464 259° West 417 480 40,000  Level Kansas City Center
09:23PM 37.3397 -99.1894 258° West 418 481 40,000  Level Kansas City Center
09:24PM 37.3161 -99.3331 258° West 419 482 40,000  Level Kansas City Center
09:25PM 37.2894 -99.4992 259° West 420 483 40,000  Level Kansas City Center
09:26PM 37.2672 -99.6378 259° West 422 486 40,000  Level Kansas City Center
09:27PM 37.2411 -99.7983 259° West 421 484 40,000  Level Kansas City Center
09:28PM 37.2192 -99.9356 259° West 419 482 40,000  Level Kansas City Center
09:29PM 37.1931 -100.0967 259° West 421 484 40,000  Level Kansas City Center
09:30PM 37.1700 -100.2342 258° West 421 484 40,000  Level Kansas City Center
09:31PM 37.1472 -100.3717 258° West 420 483 40,000  Level Kansas City Center
09:32PM 37.1203 -100.5319 258° West 420 483 40,000  Level Kansas City Center
09:33PM 37.0972 -100.6708 258° West 422 486 40,000  Level Kansas City Center
09:34PM 37.0692 -100.8314 258° West 422 486 40,000  Level Kansas City Center
09:35PM 37.0447 -100.9711 258° West 425 489 40,000  Level Kansas City Center
09:36PM 37.0061 -101.1075 251° West 432 497 40,000  Level Kansas City Center
09:37PM 36.9631 -101.2644 251° West 429 494 40,000  Level Kansas City Center
09:38PM 36.9261 -101.3994 251° West 428 493 40,000  Level Kansas City Center
09:39PM 36.9072 -101.4681 251° West 431 496 40,000  Level Albuquerque Center
09:40PM 36.8700 -101.6008 251° West 426 490 40,000  Level Albuquerque Center
09:41PM 36.8264 -101.7583 251° West 428 493 40,000  Level Albuquerque Center
09:42PM 36.7883 -101.8903 250° West 425 489 40,000  Level Albuquerque Center
09:43PM 36.7442 -102.0464 251° West 426 490 40,000  Level Albuquerque Center
09:44PM 36.7072 -102.1786 251° West 424 488 40,000  Level Albuquerque Center
09:45PM 36.6667 -102.3167 250° West 423 487 40,000  Level Albuquerque Center
09:46PM 36.6283 -102.4539 251° West 423 487 40,000  Level Albuquerque Center
09:47PM 36.5875 -102.5919 250° West 425 489 40,000  Level Albuquerque Center
09:48PM 36.5478 -102.7292 250° West 425 489 40,000  Level Albuquerque Center
09:49PM 36.5000 -102.8942 250° West 429 494 40,000  Level Albuquerque Center
09:50PM 36.4592 -103.0358 250° West 433 498 40,000  Level Albuquerque Center
09:51PM 36.4183 -103.1769 250° West 432 497 40,000  Level Albuquerque Center
09:52PM 36.3761 -103.3194 250° West 435 501 40,000  Level Albuquerque Center
09:53PM 36.3339 -103.4586 249° West 432 497 40,000  Level Albuquerque Center
09:54PM 36.2928 -103.5992 250° West 431 496 40,000  Level Albuquerque Center
09:55PM 36.2503 -103.7364 249° West 427 491 40,000  Level Albuquerque Center
09:56PM 36.2097 -103.8742 250° West 424 488 40,000  Level Albuquerque Center
09:58PM 36.1426 -104.0613 246° West  Level FlightAware Approximate
09:58PM 36.1250 -104.1406 246° West 415 478 40,000  Level Albuquerque Center
09:59PM 36.0775 -104.2986 250° West 417 480 40,000  Level Albuquerque Center
10:00PM 36.0344 -104.4361 249° West 425 489 40,000  Level Albuquerque Center
10:01PM 35.9933 -104.5742 250° West 427 491 40,000  Level Albuquerque Center
10:02PM 35.9508 -104.7089 249° West 422 486 40,000  Level Albuquerque Center
10:03PM 35.9081 -104.8439 249° West 422 486 40,000  Level Albuquerque Center
10:04PM 35.8628 -104.9806 248° West 427 491 40,000  Level Albuquerque Center
10:05PM 35.8208 -105.1144 249° West 421 484 40,000 -720 Level Albuquerque Center
10:06PM 35.7789 -105.2469 249° West 415 478 38,600 -1,140 Descending Albuquerque Center
10:07PM 35.7367 -105.3811 249° West 418 481 37,700 -2,220 Descending Albuquerque Center
10:08PM 35.6956 -105.5469 253° West 448 516 34,200 -3,000 Descending Albuquerque Center
10:09PM 35.6811 -105.6986 263° West 450 518 31,600 -2,520 Descending Albuquerque Center
10:10PM 35.6675 -105.8444 263° West 437 503 29,100 -2,400 Descending Albuquerque Center
10:11PM 35.6536 -105.9842 263° West 420 483 26,800 -2,220 Descending Albuquerque Center
10:12PM 35.6408 -106.1186 263° West 401 461 24,600 -2,220 Descending Albuquerque Center
10:13PM 35.6292 -106.2492 264° West 391 450 22,400 -2,100 Descending Albuquerque Center
10:14PM 35.6164 -106.3714 263° West 369 425 20,300 -2,280 Descending Albuquerque Center
10:15PM 35.5997 -106.5022 261° West 347 399 17,900 -2,220 Descending Albuquerque Center
10:16PM 35.5753 -106.5817 249° West 336 387 16,400 -2,040 Descending Albuquerque Center
10:17PM 35.5522 -106.6000 213° Southwest 339 390 15,700 -1,380 Descending Albuquerque Center
10:17PM 35.4917 -106.6294 202° Southwest 330 380 15,000 -1,140 Descending Albuquerque Center
10:18PM 35.4692 -106.6433 207° Southwest 327 376 14,600 -1,560 Descending Albuquerque Center
10:18PM 35.4208 -106.6636 199° South 300 345 13,600 -1,620 Descending Albuquerque Center
10:19PM 35.3897 -106.6525 164° South 316 364 13,000 -1,680 Descending Albuquerque Center
10:19PM 35.3403 -106.6297 159° South 302 348 11,900 -1,980 Descending Albuquerque Center
10:20PM 35.3106 -106.6283 178° South 303 349 11,000 -1,260 Descending Albuquerque Center
10:20PM 35.2542 -106.6625 206° Southwest 262 302 10,400 -1,140 Descending Albuquerque Center
10:21PM 35.1928 -106.7017 208° Southwest 242 278 9,000 -1,200 Descending Albuquerque Center
10:22PM 35.1247 -106.7269 197° South 235 270 8,000 -840 Descending Albuquerque Center
10:23PM 35.1181 -106.7289 193° South 245 282 8,000 -120 Level Albuquerque Center
10:23PM 35.0703 -106.7331 184° South 184 212 7,900 -300 Descending Albuquerque Center
10:24PM 35.0639 -106.7281 147° Southeast 217 250 7,700 -1,500 Descending Albuquerque Center
10:24PM 35.0431 -106.6858 121° Southeast 183 211 6,400 -1,500 Descending Albuquerque Center
10:25PM 35.0444 -106.6744 82° East 200 230 6,200 -780 Descending Albuquerque Center
10:26PM 35.0444 -106.6189 90° East 178 205 5,400 -780 Descending Albuquerque Center
10:28PM 35.0402 -106.6092 90° East  Level Estimated